createdAt,value
2019-04-06T00:00:49.759Z,25.60
2019-04-06T00:03:19.219Z,26.13
2019-04-06T00:05:48.624Z,25.83
2019-04-06T00:08:18.311Z,26.23
2019-04-06T00:10:47.896Z,25.90
2019-04-06T00:13:17.249Z,25.40
2019-04-06T00:15:46.908Z,26.03
2019-04-06T00:18:16.352Z,24.80
2019-04-06T00:20:45.920Z,26.03
2019-04-06T00:23:15.346Z,25.03
2019-04-06T00:25:45.093Z,25.50
2019-04-06T00:28:14.626Z,25.17
2019-04-06T00:30:57.589Z,25.67
2019-04-06T00:33:27.433Z,25.40
2019-04-06T00:35:56.865Z,24.37
2019-04-06T00:38:26.491Z,24.73
2019-04-06T00:40:55.808Z,24.83
2019-04-06T00:43:25.325Z,24.70
2019-04-06T00:45:54.967Z,24.67
2019-04-06T00:48:24.447Z,24.33
2019-04-06T00:50:53.887Z,24.50
2019-04-06T00:53:23.273Z,24.30
2019-04-06T00:55:55.838Z,24.20
2019-04-06T00:58:23.949Z,23.63
2019-04-06T01:00:53.549Z,23.30
2019-04-06T01:03:22.954Z,23.40
2019-04-06T01:05:52.411Z,22.67
2019-04-06T01:08:21.915Z,22.73
2019-04-06T01:10:51.409Z,23.87
2019-04-06T01:13:21.026Z,21.63
2019-04-06T01:15:50.452Z,22.23
2019-04-06T01:18:19.932Z,22.73
2019-04-06T01:20:49.473Z,22.53
2019-04-06T01:23:18.895Z,22.70
2019-04-06T01:25:48.356Z,22.67
2019-04-06T01:28:17.725Z,22.53
2019-04-06T01:30:47.219Z,22.60
2019-04-06T01:33:16.728Z,22.03
2019-04-06T01:35:46.241Z,23.23
2019-04-06T01:38:15.999Z,22.23
2019-04-06T01:40:45.360Z,21.90
2019-04-06T01:43:14.811Z,22.20
2019-04-06T01:45:44.234Z,22.43
2019-04-06T01:48:13.635Z,22.10
2019-04-06T01:50:43.170Z,21.37
2019-04-06T01:53:12.524Z,21.80
2019-04-06T01:55:41.954Z,21.07
2019-04-06T01:58:11.441Z,21.07
2019-04-06T02:00:43.910Z,22.00
2019-04-06T02:03:13.413Z,21.87
2019-04-06T02:05:42.739Z,20.70
2019-04-06T02:08:12.300Z,20.80
2019-04-06T02:10:41.903Z,21.10
2019-04-06T02:13:11.534Z,21.07
2019-04-06T02:15:40.954Z,20.33
2019-04-06T02:18:10.455Z,20.90
2019-04-06T02:20:40.038Z,19.60
2019-04-06T02:23:09.459Z,20.37
2019-04-06T02:25:39.186Z,17.97
2019-04-06T02:28:08.770Z,19.60
2019-04-06T02:30:55.979Z,18.33
2019-04-06T02:33:52.772Z,18.63
2019-04-06T02:36:44.747Z,17.53
2019-04-06T02:39:33.958Z,18.07
2019-04-06T02:42:08.660Z,18.10
2019-04-06T02:44:38.160Z,17.57
2019-04-06T02:47:07.814Z,17.87
2019-04-06T02:49:37.316Z,17.10
2019-04-06T02:52:06.713Z,17.43
2019-04-06T02:54:36.155Z,17.90
2019-04-06T02:57:05.644Z,17.00
2019-04-06T02:59:37.701Z,16.70
2019-04-06T03:02:07.116Z,17.10
2019-04-06T03:04:36.658Z,16.57
2019-04-06T03:07:06.230Z,15.80
2019-04-06T03:09:35.616Z,16.93
2019-04-06T03:12:05.115Z,15.47
2019-04-06T03:14:34.566Z,15.43
2019-04-06T03:17:04.219Z,16.17
2019-04-06T03:19:33.742Z,15.90
2019-04-06T03:22:03.376Z,16.37
2019-04-06T03:24:32.772Z,15.17
2019-04-06T03:27:05.455Z,15.67
2019-04-06T03:33:42.272Z,15.23
2019-04-06T03:36:12.198Z,16.10
2019-04-06T03:38:41.653Z,14.87
2019-04-06T03:41:11.165Z,15.43
2019-04-06T03:43:40.654Z,15.67
2019-04-06T03:46:10.320Z,15.27
2019-04-06T03:48:39.891Z,15.73
2019-04-06T03:51:09.853Z,15.23
2019-04-06T03:53:39.392Z,14.83
2019-04-06T03:56:09.215Z,16.00
2019-04-06T03:58:39.116Z,15.67
2019-04-06T04:01:08.897Z,15.87
2019-04-06T04:03:38.471Z,15.13
2019-04-06T04:06:08.185Z,16.23
2019-04-06T04:08:37.800Z,15.60
2019-04-06T04:11:07.355Z,15.13
2019-04-06T04:13:36.820Z,15.90
2019-04-06T04:16:06.266Z,14.57
2019-04-06T04:18:35.791Z,15.33
2019-04-06T04:21:05.389Z,16.13
2019-04-06T04:23:35.055Z,14.73
2019-04-06T04:26:04.894Z,16.47
2019-04-06T04:28:34.627Z,16.47
2019-04-06T04:31:06.878Z,15.50
2019-04-06T04:33:36.474Z,16.13
2019-04-06T04:36:05.906Z,15.90
2019-04-06T04:38:35.496Z,15.53
2019-04-06T04:41:05.366Z,15.57
2019-04-06T04:43:34.834Z,15.00
2019-04-06T04:46:04.303Z,15.40
2019-04-06T04:48:33.656Z,15.60
2019-04-06T04:51:03.038Z,15.90
2019-04-06T04:53:32.493Z,15.40
2019-04-06T04:56:02.164Z,15.63
2019-04-06T04:58:31.778Z,15.10
2019-04-06T05:01:01.467Z,15.60
2019-04-06T05:03:31.107Z,15.33
2019-04-06T05:06:02.695Z,15.97
2019-04-06T05:08:32.361Z,14.80
2019-04-06T05:11:01.757Z,15.37
2019-04-06T05:13:31.294Z,14.83
2019-04-06T05:16:11.509Z,16.90
2019-04-06T05:18:42.047Z,14.93
2019-04-06T05:21:12.268Z,15.23
2019-04-06T05:23:41.762Z,15.07
2019-04-06T05:26:11.426Z,14.73
2019-04-06T05:28:40.967Z,15.13
2019-04-06T05:31:10.446Z,14.90
2019-04-06T05:33:40.703Z,16.20
2019-04-06T05:36:10.302Z,16.23
2019-04-06T05:38:40.080Z,15.17
2019-04-06T05:41:09.511Z,15.23
2019-04-06T05:43:38.928Z,15.23
2019-04-06T05:46:08.248Z,15.97
2019-04-06T05:48:39.444Z,15.67
2019-04-06T05:51:08.846Z,15.33
2019-04-06T05:53:38.307Z,15.40
2019-04-06T05:56:07.901Z,15.17
2019-04-06T05:58:39.917Z,15.20
2019-04-06T06:01:10.397Z,15.90
2019-04-06T06:03:41.091Z,15.60
2019-04-06T06:06:12.659Z,15.07
2019-04-06T06:08:41.842Z,14.80
2019-04-06T06:11:11.392Z,15.37
2019-04-06T06:13:40.943Z,14.57
2019-04-06T06:16:12.861Z,14.30
2019-04-06T06:18:42.318Z,14.63
2019-04-06T06:21:11.716Z,14.50
2019-04-06T06:23:41.402Z,14.97
2019-04-06T06:26:10.932Z,14.37
2019-04-06T06:28:40.587Z,14.60
2019-04-06T06:31:10.237Z,15.10
2019-04-06T06:33:39.844Z,15.70
2019-04-06T06:36:09.632Z,15.53
2019-04-06T06:38:39.471Z,16.00
2019-04-06T06:41:09.437Z,15.70
2019-04-06T06:43:40.089Z,15.63
2019-04-06T06:46:23.289Z,15.17
2019-04-06T06:48:53.067Z,15.97
2019-04-06T06:51:23.112Z,14.53
2019-04-06T06:53:55.446Z,15.20
2019-04-06T06:56:24.923Z,14.93
2019-04-06T06:59:01.436Z,15.57
2019-04-06T07:01:31.203Z,15.20
2019-04-06T07:04:00.831Z,15.93
2019-04-06T07:06:30.367Z,15.23
2019-04-06T07:08:59.739Z,16.17
2019-04-06T07:11:29.658Z,15.30
2019-04-06T07:14:00.380Z,16.10
2019-04-06T07:16:30.073Z,16.40
2019-04-06T07:18:59.825Z,16.40
2019-04-06T07:21:29.329Z,16.73
2019-04-06T07:24:02.793Z,15.20
2019-04-06T07:26:33.096Z,16.87
2019-04-06T07:29:02.586Z,15.93
2019-04-06T07:31:32.080Z,16.37
2019-04-06T07:34:01.491Z,16.70
2019-04-06T07:36:31.537Z,16.03
2019-04-06T07:39:01.658Z,16.77
2019-04-06T07:41:31.125Z,16.73
2019-04-06T07:44:00.871Z,17.30
2019-04-06T07:46:30.664Z,15.80
2019-04-06T07:49:08.441Z,16.90
2019-04-06T07:51:32.211Z,15.50
2019-04-06T07:54:01.659Z,16.13
2019-04-06T07:56:31.363Z,16.27
2019-04-06T07:59:00.908Z,16.10
2019-04-06T08:01:30.390Z,16.70
2019-04-06T08:03:59.743Z,16.77
2019-04-06T08:06:29.167Z,17.17
2019-04-06T08:08:58.730Z,16.03
2019-04-06T08:11:30.106Z,16.70
2019-04-06T08:13:59.723Z,16.30
2019-04-06T08:16:29.227Z,17.03
2019-04-06T08:18:58.709Z,17.73
2019-04-06T08:21:28.130Z,17.50
2019-04-06T08:23:58.843Z,17.27
2019-04-06T08:26:28.314Z,17.23
2019-04-06T08:29:01.954Z,17.50
2019-04-06T08:31:29.650Z,16.70
2019-04-06T08:33:59.241Z,16.80
2019-04-06T08:36:28.650Z,17.30
2019-04-06T08:38:58.698Z,17.63
2019-04-06T08:41:30.142Z,16.67
2019-04-06T08:44:14.858Z,17.57
2019-04-06T08:46:46.264Z,17.07
2019-04-06T08:49:43.003Z,17.67
2019-04-06T08:52:12.563Z,17.93
2019-04-06T08:54:44.128Z,17.53
2019-04-06T08:57:14.817Z,19.37
2019-04-06T08:59:44.313Z,19.27
2019-04-06T09:02:35.219Z,19.33
2019-04-06T09:05:04.952Z,20.13
2019-04-06T09:08:22.275Z,21.00
2019-04-06T09:22:07.380Z,19.53
2019-04-06T09:24:39.293Z,18.67
2019-04-06T09:27:11.735Z,19.17
2019-04-06T09:33:48.927Z,19.13
2019-04-06T09:36:18.482Z,18.93
2019-04-06T09:38:50.212Z,19.13
2019-04-06T09:48:37.826Z,18.97
2019-04-06T09:54:48.761Z,18.27
2019-04-06T10:01:00.802Z,19.23
2019-04-06T10:04:00.146Z,18.37
2019-04-06T10:17:49.057Z,17.87
2019-04-06T10:20:38.300Z,20.17
2019-04-06T10:23:39.374Z,19.50
2019-04-06T10:26:25.916Z,19.27
2019-04-06T10:29:08.679Z,19.07
2019-04-06T10:32:00.564Z,18.97
2019-04-06T10:34:47.791Z,18.93
2019-04-06T10:37:55.356Z,18.63
2019-04-06T10:40:47.004Z,20.33
2019-04-06T10:43:41.671Z,24.40
2019-04-06T10:46:45.465Z,21.37
2019-04-06T10:49:37.124Z,18.83
2019-04-06T10:52:23.143Z,19.80
2019-04-06T10:55:10.412Z,18.27
2019-04-06T10:58:14.010Z,18.80
2019-04-06T11:00:52.669Z,19.40
2019-04-06T11:03:59.118Z,17.70
2019-04-06T11:06:53.681Z,17.93
2019-04-06T11:16:28.888Z,18.23
2019-04-06T11:19:18.085Z,18.30
2019-04-06T11:22:17.086Z,18.00
2019-04-06T11:25:19.974Z,34.27
2019-04-06T11:28:23.678Z,46.67
2019-04-06T11:31:20.907Z,22.30
2019-04-06T11:34:08.861Z,18.10
2019-04-06T11:37:02.847Z,18.17
2019-04-06T11:40:03.688Z,18.57
2019-04-06T11:42:50.759Z,18.47
2019-04-06T11:45:43.385Z,18.50
2019-04-06T11:48:25.223Z,18.17
2019-04-06T11:51:13.833Z,18.83
2019-04-06T11:54:07.912Z,19.37
2019-04-06T11:56:59.718Z,19.33
2019-04-06T11:59:47.892Z,18.30
2019-04-06T12:02:48.223Z,18.97
2019-04-06T12:05:42.924Z,20.40
2019-04-06T12:08:30.269Z,18.90
2019-04-06T12:11:11.319Z,20.97
2019-04-06T12:13:59.892Z,20.93
2019-04-06T12:16:44.798Z,21.23
2019-04-06T12:19:21.446Z,22.40
2019-04-06T12:22:21.082Z,25.03
2019-04-06T12:28:25.367Z,25.03
2019-04-06T12:31:10.981Z,25.30
2019-04-06T12:50:08.375Z,30.10
2019-04-06T12:52:46.743Z,29.70
2019-04-06T13:18:53.186Z,34.67
2019-04-06T13:21:37.650Z,33.80
2019-04-06T13:24:17.759Z,32.63
2019-04-06T13:27:08.463Z,30.43
2019-04-06T13:30:00.565Z,30.80
2019-04-06T13:32:59.593Z,29.00
2019-04-06T13:35:50.368Z,29.67
2019-04-06T13:38:39.085Z,31.33
2019-04-06T13:41:26.885Z,34.60
2019-04-06T13:44:19.839Z,37.33
2019-04-06T13:47:08.478Z,38.37
2019-04-06T13:50:02.334Z,37.90
2019-04-06T13:53:09.553Z,39.87
2019-04-06T13:56:06.999Z,39.23
2019-04-06T13:59:01.686Z,40.40
2019-04-06T14:01:43.359Z,41.80
2019-04-06T14:04:30.402Z,44.70
2019-04-06T14:07:20.404Z,40.33
2019-04-06T14:09:59.980Z,38.47
2019-04-06T14:12:55.758Z,36.87
2019-04-06T14:15:44.717Z,34.33
2019-04-06T14:18:32.126Z,36.90
2019-04-06T14:21:29.748Z,35.87
2019-04-06T14:24:30.244Z,35.03
2019-04-06T14:27:30.637Z,37.57
2019-04-06T14:30:15.024Z,38.27
2019-04-06T14:33:07.998Z,44.97
2019-04-06T14:35:56.612Z,40.40
2019-04-06T14:38:57.379Z,39.90
2019-04-06T14:42:01.553Z,41.80
2019-04-06T14:44:50.421Z,41.77
2019-04-06T14:47:42.658Z,46.63
2019-04-06T14:50:27.264Z,44.57
2019-04-06T14:53:14.735Z,44.30
2019-04-06T14:55:52.408Z,48.63
2019-04-06T14:58:37.534Z,60.37
2019-04-06T15:01:38.362Z,59.47
2019-04-06T15:04:31.406Z,57.67
2019-04-06T15:07:18.719Z,58.00
2019-04-06T15:10:03.339Z,63.17
2019-04-06T15:12:57.198Z,58.53
2019-04-06T15:15:41.041Z,72.67
2019-04-06T15:18:20.619Z,65.70
2019-04-06T15:21:21.343Z,55.20
2019-04-06T15:24:06.474Z,55.57
2019-04-06T15:26:56.113Z,55.00
2019-04-06T15:30:00.044Z,48.70
2019-04-06T15:32:48.830Z,48.63
2019-04-06T15:35:36.383Z,47.63
2019-04-06T15:38:23.588Z,46.40
2019-04-06T15:41:27.629Z,47.37
2019-04-06T15:44:06.109Z,42.03
2019-04-06T15:46:51.804Z,40.90
2019-04-06T15:49:50.350Z,39.97
2019-04-06T15:52:37.439Z,39.60
2019-04-06T15:55:36.721Z,42.03
2019-04-06T15:58:18.258Z,40.57
2019-04-06T16:01:05.319Z,40.60
2019-04-06T16:04:03.058Z,45.23
2019-04-06T16:07:03.515Z,58.93
2019-04-06T16:09:59.846Z,58.30
2019-04-06T16:16:47.691Z,51.20
2019-04-06T16:19:45.226Z,55.40
2019-04-06T16:22:32.488Z,58.53
2019-04-06T16:25:23.558Z,67.33
2019-04-06T16:28:20.975Z,70.10
2019-04-06T16:31:13.700Z,55.93
2019-04-06T16:33:56.545Z,66.07
2019-04-06T16:37:03.709Z,51.07
2019-04-06T16:40:25.806Z,49.43
2019-04-06T16:43:23.091Z,45.53
2019-04-06T16:46:20.321Z,45.63
2019-04-06T16:49:10.838Z,43.57
2019-04-06T16:51:47.738Z,40.60
2019-04-06T16:54:48.521Z,40.57
2019-04-06T16:57:39.301Z,40.67
2019-04-06T17:00:36.680Z,42.37
2019-04-06T17:03:24.021Z,47.03
2019-04-06T17:06:11.604Z,45.43
2019-04-06T17:09:12.083Z,36.80
2019-04-06T17:11:53.836Z,38.10
2019-04-06T17:14:35.145Z,38.83
2019-04-06T17:17:20.831Z,41.93
2019-04-06T17:20:08.238Z,46.20
2019-04-06T17:23:06.665Z,47.83
2019-04-06T17:25:54.094Z,47.50
2019-04-06T17:28:39.897Z,47.70
2019-04-06T17:31:27.880Z,43.70
2019-04-06T17:34:15.715Z,38.47
2019-04-06T17:37:13.252Z,39.63
2019-04-06T17:40:10.714Z,38.03
2019-04-06T17:42:59.203Z,36.60
2019-04-06T17:45:47.479Z,38.83
2019-04-06T17:48:33.261Z,35.50
2019-04-06T17:51:20.905Z,40.00
2019-04-06T17:57:11.447Z,37.47
2019-04-06T18:00:01.803Z,36.33
2019-04-06T18:03:25.680Z,38.77
2019-04-06T18:06:23.350Z,47.53
2019-04-06T18:09:09.830Z,47.70
2019-04-06T18:12:07.827Z,48.53
2019-04-06T18:14:47.167Z,47.23
2019-04-06T18:17:16.644Z,46.60
2019-04-06T18:19:46.477Z,50.57
2019-04-06T18:22:16.134Z,48.97
2019-04-06T18:24:45.516Z,52.07
2019-04-06T18:27:16.226Z,48.90
2019-04-06T18:29:45.710Z,49.07
2019-04-06T18:32:26.590Z,48.97
2019-04-06T18:34:58.443Z,47.17
2019-04-06T18:37:41.639Z,47.20
2019-04-06T18:40:30.541Z,48.30
2019-04-06T18:43:00.127Z,49.93
2019-04-06T18:45:31.668Z,49.97
2019-04-06T18:48:02.090Z,49.80
2019-04-06T18:50:36.516Z,50.70
2019-04-06T18:53:02.475Z,47.83
2019-04-06T18:55:32.738Z,53.03
2019-04-06T18:58:10.531Z,48.53
2019-04-06T19:00:33.466Z,45.67
2019-04-06T19:03:12.002Z,43.03
2019-04-06T19:05:34.523Z,46.93
2019-04-06T19:08:04.215Z,46.77
2019-04-06T19:10:33.962Z,48.53
2019-04-06T19:13:03.359Z,48.03
2019-04-06T19:15:33.187Z,47.43
2019-04-06T19:18:04.560Z,50.00
2019-04-06T19:20:34.007Z,50.30
2019-04-06T19:23:03.687Z,51.03
2019-04-06T19:25:33.301Z,50.00
2019-04-06T19:28:03.039Z,51.37
2019-04-06T19:30:32.622Z,59.53
2019-04-06T19:33:02.054Z,58.57
2019-04-06T19:35:31.488Z,58.03
2019-04-06T19:38:00.953Z,54.97
2019-04-06T19:40:30.375Z,53.27
2019-04-06T19:43:00.043Z,54.13
2019-04-06T19:45:29.522Z,52.67
2019-04-06T19:47:59.314Z,52.00
2019-04-06T19:50:29.026Z,49.10
2019-04-06T19:52:58.522Z,47.73
2019-04-06T19:55:28.126Z,46.27
2019-04-06T19:57:59.678Z,44.33
2019-04-06T20:00:29.421Z,42.40
2019-04-06T20:02:59.470Z,39.73
2019-04-06T20:05:28.959Z,37.97
2019-04-06T20:07:58.319Z,38.20
2019-04-06T20:10:27.753Z,35.57
2019-04-06T20:12:57.230Z,36.03
2019-04-06T20:15:26.883Z,32.67
2019-04-06T20:17:56.460Z,31.60
2019-04-06T20:20:26.594Z,32.03
2019-04-06T20:22:56.052Z,33.47
2019-04-06T20:25:25.472Z,32.70
2019-04-06T20:27:56.951Z,33.03
2019-04-06T20:30:26.393Z,32.00
2019-04-06T20:32:55.970Z,32.93
2019-04-06T20:35:25.432Z,31.30
2019-04-06T20:37:55.914Z,32.17
2019-04-06T20:40:28.721Z,32.63
2019-04-06T20:42:58.385Z,33.67
2019-04-06T20:45:29.354Z,33.90
2019-04-06T20:47:58.762Z,32.20
2019-04-06T20:50:28.732Z,33.00
2019-04-06T20:52:58.422Z,31.70
2019-04-06T20:55:28.149Z,31.27
2019-04-06T20:57:57.571Z,31.80
2019-04-06T21:00:27.148Z,30.57
2019-04-06T21:02:56.935Z,31.00
2019-04-06T21:05:26.262Z,30.07
2019-04-06T21:07:58.003Z,29.53
2019-04-06T21:10:28.178Z,27.97
2019-04-06T21:12:57.717Z,26.33
2019-04-06T21:15:27.299Z,29.67
2019-04-06T21:17:56.778Z,29.57
2019-04-06T21:20:26.524Z,27.97
2019-04-06T21:22:56.303Z,27.10
2019-04-06T21:25:25.738Z,27.97
2019-04-06T21:27:55.328Z,27.60
2019-04-06T21:30:24.878Z,27.50
2019-04-06T21:32:54.520Z,27.03
2019-04-06T21:35:23.870Z,29.50
2019-04-06T21:37:54.266Z,29.70
2019-04-06T21:40:23.980Z,29.43
2019-04-06T21:42:53.544Z,30.57
2019-04-06T21:45:23.445Z,31.53
2019-04-06T21:47:53.162Z,32.50
2019-04-06T21:50:22.829Z,29.67
2019-04-06T21:52:52.936Z,30.00
2019-04-06T21:55:22.778Z,28.73
2019-04-06T21:57:53.054Z,28.43
2019-04-06T22:00:38.613Z,29.53
2019-04-06T22:03:08.041Z,29.70
2019-04-06T22:05:37.395Z,29.67
2019-04-06T22:08:07.206Z,31.37
2019-04-06T22:10:36.766Z,29.67
2019-04-06T22:13:06.188Z,30.90
2019-04-06T22:15:36.131Z,29.87
2019-04-06T22:18:06.824Z,30.20
2019-04-06T22:20:36.344Z,30.27
2019-04-06T22:23:06.605Z,31.00
2019-04-06T22:25:36.790Z,31.83
2019-04-06T22:28:06.225Z,31.13
2019-04-06T22:30:35.734Z,32.13
2019-04-06T22:33:06.550Z,32.23
2019-04-06T22:35:36.257Z,32.13
2019-04-06T22:38:05.757Z,31.03
2019-04-06T22:40:35.636Z,30.10
2019-04-06T22:43:05.480Z,30.97
2019-04-06T22:45:35.915Z,31.50
2019-04-06T22:48:05.794Z,31.23
2019-04-06T22:50:36.008Z,31.97
2019-04-06T22:53:06.483Z,31.93
2019-04-06T22:55:35.987Z,31.77
2019-04-06T22:58:06.416Z,31.20
2019-04-06T23:00:38.706Z,30.63
2019-04-06T23:03:36.670Z,30.97
2019-04-06T23:06:09.742Z,30.47
2019-04-06T23:08:39.374Z,29.53
2019-04-06T23:11:09.048Z,29.97
2019-04-06T23:13:38.566Z,29.33
2019-04-06T23:16:08.030Z,32.27
2019-04-06T23:18:37.467Z,30.07
2019-04-06T23:21:07.501Z,30.60
2019-04-06T23:23:37.076Z,31.10
2019-04-06T23:26:06.535Z,31.50
2019-04-06T23:28:35.954Z,31.33
2019-04-06T23:31:06.180Z,33.57
2019-04-06T23:33:36.138Z,31.20
2019-04-06T23:36:05.905Z,32.60
2019-04-06T23:38:37.918Z,33.27
2019-04-06T23:41:07.391Z,32.67
2019-04-06T23:43:36.996Z,33.70
2019-04-06T23:46:06.754Z,32.93
2019-04-06T23:48:36.448Z,36.50
2019-04-06T23:51:06.315Z,34.20
2019-04-06T23:53:37.893Z,34.20
2019-04-06T23:56:08.074Z,38.33
2019-04-06T23:58:37.653Z,37.87
